Seeley, CA

01:38 PDT le 23 octobre 2014 (GMT -0700)
El Centro Naval Air Facility | Change Station
CLOSE
Current Station
Aéroport
Location: El Centro,
Altitude: -43 ft
Stations météo à proximité

Alt. -43 ft 32.83 °N, 115.66 °W | Updated 42 minutes ago

Ciel dégagé
Ciel dégagé
70 ° F
Paraît 70 ° F
N
5
Vent Variable Vent de SO

Aujourd'hui
Haut(e) -- | Bas -- ° F
--% Risque de précip.
Hier
Haut(e) -- | Bas -- ° F
Precip. -- pouce
6:53 AM 6:00 PM
Lune descendante, 0% visible
Pression 29.95 pouce
Visibilité 10.0 Miles terrestres
Nuages Ciel dégagé
Point de rosée 40 ° F
Humidité 33%
Précipitations 0.00 pouce
Profondeur de la couche neigeuse Non disponible.
UV 0 sur 12
Pollen 6.50 sur 12
Ozone Bon
PM2.5 Moyen
Flu Activity Sporadic
METAR KNJK 230756Z AUTO 22004KT 10SM CLR 21/04 A2990 RMK AO2 SLP141 T02110044 403500156

More Conditions Fewer Conditions

Pression 29.95 pouce
Visibilité 10.0 Miles terrestres
Nuages Ciel dégagé
Point de rosée 40 ° F
Humidité 33%
Précipitations 0.00 pouce
Profondeur de la couche neigeuse Non disponible.
UV 0 sur 12
Pollen 6.50 sur 12
Ozone Bon
PM2.5 Moyen
Flu Activity Sporadic
METAR KNJK 230756Z AUTO 22004KT 10SM CLR 21/04 A2990 RMK AO2 SLP141 T02110044 403500156

More Conditions Fewer Conditions

10-Day Weather Forecast

Almanac

Astronomie

Oct. 23, 2014 Lever Coucher
Temps réel 06:53 PDT 18:00 PDT
Crépuscule civil 06:27 PDT 18:25 PDT
Crépuscule nautique 05:59 PDT 18:54 PDT
Crépuscule astronomique 05:30 PDT 19:22 PDT
Lune 06:37 PDT 18:04 PDT
Durée de lumière visible 11h 57m
Longueur du jour
11h 07m
Tomorrow will be 1m 52s shorter.
Lune descendante, 0% of the Moon is Illuminated
Aujourd'hui
Lune descendante
Oct 23
Nouveau
Oct 30
Premier quartier
Nov 6
Pleine lune
Nov 14
Dernier quartier

Extrêmes aujourd'hui

State Highs State Lows

Community

WunderPhotos

Upload Photos

1,764,197 Photos téléchargées !

Nearby

Qualité de l'air

  Qualité de l'air Indice de la qualité de l'air Polluant
Hier Moyen
PM2.5
Hier Bon
OZONE
Actuel Moyen
PM2.5
Actuel Bon
OZONE

Épaisseur de neige

Station Depth Altitude
Virginia Lakes Ridge 0 in 9200 ft
Leavitt Lake 1 in 9400 ft
Leavitt Meadows 0 in 7200 ft
Sonora Pass 0 in 8800 ft
Summit Meadow 1 in 9122 ft

Activité sismique

Ville Distance Mag. Time & Date
Alberto Oviedo Mota, Mexico 88 Miles terrestres 3.5 21:05 PDT
2014-10-21
Delta, Mexico 37 Miles terrestres 2.5 20:53 PDT
2014-10-21
Alberto Oviedo Mota, Mexico 54 Miles terrestres 2.7 16:13 PDT
2014-10-21
Alberto Oviedo Mota, Mexico 52 Miles terrestres 3.3 15:57 PDT
2014-10-21
Minimum magnitude displayed is 2.5.

Températures des eaux côtières

Lieu Température
Aucun rapport de station

Stations météo à proximité